createdAt,value
2023-04-25T00:01:52.534Z,97597.44
2023-04-25T00:04:19.330Z,97606.72
2023-04-25T00:06:46.255Z,97607.53
2023-04-25T00:09:12.921Z,97604.72
2023-04-25T00:11:39.581Z,97606.78
2023-04-25T00:14:07.779Z,97604.00
2023-04-25T00:16:35.933Z,97606.00
2023-04-25T00:19:04.377Z,97607.66
2023-04-25T00:21:32.595Z,97605.91
2023-04-25T00:23:59.447Z,97616.53
2023-04-25T00:26:26.200Z,97606.84
2023-04-25T00:28:53.026Z,97613.84
2023-04-25T00:31:19.777Z,97613.13
2023-04-25T00:33:46.414Z,97621.84
2023-04-25T00:36:13.040Z,97602.53
2023-04-25T00:38:39.643Z,97603.72
2023-04-25T00:41:08.463Z,97600.19
2023-04-25T00:43:37.263Z,97602.09
2023-04-25T00:46:04.116Z,97603.94
2023-04-25T00:48:30.775Z,97603.78
2023-04-25T00:50:59.732Z,97607.25
2023-04-25T00:53:28.382Z,97608.16
2023-04-25T00:55:55.433Z,97606.31
2023-04-25T00:58:22.942Z,97610.06
2023-04-25T01:00:53.093Z,97610.06
2023-04-25T01:03:23.162Z,97606.75
2023-04-25T01:05:51.475Z,97606.63
2023-04-25T01:08:18.010Z,97600.63
2023-04-25T01:10:44.620Z,97602.53
2023-04-25T01:13:11.616Z,97598.25
2023-04-25T01:15:38.205Z,97600.00
2023-04-25T01:18:07.082Z,97600.16
2023-04-25T01:20:34.748Z,97599.31
2023-04-25T01:23:03.089Z,97597.72
2023-04-25T01:25:31.194Z,97602.28
2023-04-25T01:27:59.012Z,97604.13
2023-04-25T01:30:27.901Z,97605.91
2023-04-25T01:32:57.942Z,97600.81
2023-04-25T01:35:25.250Z,97607.81
2023-04-25T01:37:52.804Z,97602.63
2023-04-25T01:40:23.332Z,97600.94
2023-04-25T01:42:50.105Z,97597.44
2023-04-25T01:45:16.827Z,97601.84
2023-04-25T01:47:44.894Z,97600.94
2023-04-25T01:50:12.443Z,97602.75
2023-04-25T01:52:39.458Z,97606.94
2023-04-25T01:55:07.280Z,97600.91
2023-04-25T01:57:33.844Z,97602.47
2023-04-25T02:00:02.897Z,97600.91
2023-04-25T02:02:29.626Z,97605.16
2023-04-25T02:04:57.280Z,97603.47
2023-04-25T02:07:24.062Z,97609.63
2023-04-25T02:09:51.017Z,97605.28
2023-04-25T02:12:17.641Z,97607.81
2023-04-25T02:14:44.348Z,97612.91
2023-04-25T02:17:11.337Z,97605.91
2023-04-25T02:19:38.172Z,97608.44
2023-04-25T02:22:04.930Z,97605.84
2023-04-25T02:24:32.914Z,97606.69
2023-04-25T02:26:59.496Z,97618.19
2023-04-25T02:29:26.131Z,97613.84
2023-04-25T02:31:52.843Z,97607.84
2023-04-25T02:34:19.604Z,97613.94
2023-04-25T02:36:46.205Z,97610.34
2023-04-25T02:39:12.907Z,97611.00
2023-04-25T02:41:39.539Z,97602.28
2023-04-25T02:44:06.355Z,97604.06
2023-04-25T02:49:04.918Z,97607.50
2023-04-25T02:51:31.580Z,97603.16
2023-04-25T02:53:58.226Z,97603.03
2023-04-25T02:56:27.303Z,97602.00
2023-04-25T02:58:54.870Z,97602.25
2023-04-25T03:01:21.887Z,97605.84
2023-04-25T03:03:48.949Z,97606.81
2023-04-25T03:06:17.045Z,97606.97
2023-04-25T03:08:44.132Z,97608.91
2023-04-25T03:11:11.561Z,97605.56
2023-04-25T03:13:38.368Z,97606.44
2023-04-25T03:16:05.544Z,97609.78
2023-04-25T03:18:32.162Z,97605.53
2023-04-25T03:20:58.960Z,97600.19
2023-04-25T03:23:25.749Z,97603.81
2023-04-25T03:25:52.348Z,97602.19
2023-04-25T03:28:19.194Z,97603.16
2023-04-25T03:30:45.868Z,97612.00
2023-04-25T03:33:12.639Z,97600.03
2023-04-25T03:35:39.204Z,97609.72
2023-04-25T03:38:05.968Z,97605.69
2023-04-25T03:40:32.709Z,97610.13
2023-04-25T03:42:59.405Z,97610.25
2023-04-25T03:45:26.110Z,97612.88
2023-04-25T03:47:52.898Z,97618.09
2023-04-25T03:50:19.577Z,97612.09
2023-04-25T03:52:46.207Z,97621.72
2023-04-25T03:55:12.819Z,97621.75
2023-04-25T03:57:39.433Z,97620.03
2023-04-25T04:00:07.721Z,97615.72
2023-04-25T04:02:36.125Z,97606.13
2023-04-25T04:05:04.006Z,97616.44
2023-04-25T04:07:31.017Z,97622.53
2023-04-25T04:09:57.634Z,97619.16
2023-04-25T04:12:24.419Z,97624.38
2023-04-25T04:14:51.432Z,97616.50
2023-04-25T04:17:17.992Z,97618.09
2023-04-25T04:19:44.649Z,97621.66
2023-04-25T04:22:11.648Z,97623.38
2023-04-25T04:24:38.255Z,97615.56
2023-04-25T04:27:05.258Z,97621.66
2023-04-25T04:29:32.191Z,97624.25
2023-04-25T04:31:59.106Z,97621.59
2023-04-25T04:34:26.893Z,97615.38
2023-04-25T04:36:53.561Z,97617.78
2023-04-25T04:39:20.273Z,97621.19
2023-04-25T04:41:47.460Z,97622.75
2023-04-25T04:44:15.919Z,97619.19
2023-04-25T04:46:45.686Z,97629.50
2023-04-25T04:49:13.484Z,97622.44
2023-04-25T04:51:41.593Z,97622.28
2023-04-25T04:54:08.244Z,97627.22
2023-04-25T04:56:34.899Z,97626.09
2023-04-25T04:59:03.000Z,97629.38
2023-04-25T05:01:31.285Z,97635.25
2023-04-25T05:04:02.238Z,97641.22
2023-04-25T05:06:32.550Z,97639.13
2023-04-25T05:09:01.034Z,97636.94
2023-04-25T05:11:27.873Z,97635.59
2023-04-25T05:13:55.009Z,97653.84
2023-04-25T05:16:21.961Z,97654.13
2023-04-25T05:18:48.990Z,97647.69
2023-04-25T05:21:15.712Z,97643.13
2023-04-25T05:23:42.410Z,97654.66
2023-04-25T05:26:14.941Z,97642.78
2023-04-25T05:28:42.948Z,97644.59
2023-04-25T05:31:11.501Z,97645.56
2023-04-25T05:33:38.144Z,97647.13
2023-04-25T05:36:05.176Z,97663.63
2023-04-25T05:38:34.107Z,97659.81
2023-04-25T05:41:01.467Z,97663.31
2023-04-25T05:43:28.066Z,97659.72
2023-04-25T05:45:54.854Z,97660.53
2023-04-25T05:48:21.749Z,97669.00
2023-04-25T05:50:48.476Z,97665.53
2023-04-25T05:53:15.121Z,97665.44
2023-04-25T05:55:41.792Z,97663.16
2023-04-25T05:58:08.475Z,97669.34
2023-04-25T06:00:35.453Z,97677.84
2023-04-25T06:03:02.494Z,97672.03
2023-04-25T06:05:29.680Z,97680.06
2023-04-25T06:07:56.625Z,97678.13
2023-04-25T06:10:23.810Z,97676.94
2023-04-25T06:12:50.427Z,97674.94
2023-04-25T06:15:28.214Z,97667.94
2023-04-25T06:17:55.993Z,97678.75
2023-04-25T06:20:25.090Z,97684.47
2023-04-25T06:22:52.912Z,97684.41
2023-04-25T06:25:19.677Z,97675.16
2023-04-25T06:27:46.429Z,97685.88
2023-04-25T06:30:13.324Z,97688.00
2023-04-25T06:32:40.428Z,97691.19
2023-04-25T06:35:07.490Z,97681.84
2023-04-25T06:37:34.096Z,97679.44
2023-04-25T06:40:00.876Z,97684.59
2023-04-25T06:42:27.410Z,97692.53
2023-04-25T06:44:54.009Z,97697.34
2023-04-25T06:47:20.838Z,97685.13
2023-04-25T06:49:47.591Z,97694.16
2023-04-25T06:52:14.306Z,97703.00
2023-04-25T06:54:40.990Z,97708.91
2023-04-25T06:57:07.715Z,97715.59
2023-04-25T06:59:34.401Z,97717.41
2023-04-25T07:02:01.101Z,97712.94
2023-04-25T07:04:27.970Z,97717.91
2023-04-25T07:06:55.945Z,97716.53
2023-04-25T07:09:23.167Z,97716.41
2023-04-25T07:11:49.824Z,97723.97
2023-04-25T07:14:16.484Z,97725.63
2023-04-25T07:16:43.460Z,97731.31
2023-04-25T07:19:10.151Z,97725.38
2023-04-25T07:21:37.521Z,97729.78
2023-04-25T07:24:04.461Z,97732.47
2023-04-25T07:26:31.229Z,97732.19
2023-04-25T07:28:57.947Z,97733.09
2023-04-25T07:31:24.729Z,97732.47
2023-04-25T07:33:51.600Z,97731.59
2023-04-25T07:36:18.350Z,97731.41
2023-04-25T07:38:45.050Z,97737.41
2023-04-25T07:41:11.781Z,97737.47
2023-04-25T07:43:38.537Z,97745.13
2023-04-25T07:46:05.415Z,97742.47
2023-04-25T07:48:32.192Z,97741.69
2023-04-25T07:50:59.194Z,97747.09
2023-04-25T07:53:25.867Z,97752.59
2023-04-25T07:55:52.637Z,97748.50
2023-04-25T07:58:22.912Z,97752.41
2023-04-25T08:00:50.142Z,97758.34
2023-04-25T08:03:17.216Z,97758.38
2023-04-25T08:05:44.286Z,97765.81
2023-04-25T08:08:11.195Z,97765.63
2023-04-25T08:10:37.816Z,97766.06
2023-04-25T08:13:04.489Z,97777.59
2023-04-25T08:15:31.294Z,97776.09
2023-04-25T08:17:58.130Z,97778.06
2023-04-25T08:20:24.761Z,97783.03
2023-04-25T08:22:51.619Z,97793.78
2023-04-25T08:25:18.250Z,97797.28
2023-04-25T08:27:44.902Z,97791.97
2023-04-25T08:30:12.077Z,97793.97
2023-04-25T08:32:41.702Z,97804.69
2023-04-25T08:35:08.859Z,97807.53
2023-04-25T08:37:36.037Z,97806.03
2023-04-25T08:40:03.992Z,97812.19
2023-04-25T08:42:32.606Z,97818.88
2023-04-25T08:45:02.556Z,97823.19
2023-04-25T08:47:31.335Z,97813.09
2023-04-25T08:50:00.906Z,97815.94
2023-04-25T08:52:31.754Z,97819.09
2023-04-25T08:54:58.682Z,97822.78
2023-04-25T08:57:26.187Z,97817.50
2023-04-25T08:59:53.890Z,97833.75
2023-04-25T09:02:21.998Z,97840.34
2023-04-25T09:04:49.855Z,97834.69
2023-04-25T09:07:19.756Z,97835.41
2023-04-25T09:09:46.483Z,97835.41
2023-04-25T09:12:13.396Z,97836.00
2023-04-25T09:14:40.146Z,97833.16
2023-04-25T09:17:08.946Z,97842.72
2023-04-25T09:19:40.896Z,97843.31
2023-04-25T09:22:09.050Z,97848.59
2023-04-25T09:24:36.579Z,97859.31
2023-04-25T09:27:11.621Z,97872.34
2023-04-25T09:29:43.160Z,97868.31
2023-04-25T09:32:23.915Z,97881.94
2023-04-25T09:34:52.856Z,97885.63
2023-04-25T09:37:29.962Z,97882.53
2023-04-25T09:40:00.193Z,97887.91
2023-04-25T09:42:29.964Z,97892.25
2023-04-25T09:44:57.788Z,97898.53
2023-04-25T09:47:26.490Z,97900.19
2023-04-25T09:49:54.447Z,97905.88
2023-04-25T09:52:25.657Z,97907.59
2023-04-25T09:54:53.438Z,97902.38
2023-04-25T09:57:22.135Z,97907.34
2023-04-25T09:59:50.915Z,97905.56
2023-04-25T10:02:21.513Z,97912.75
2023-04-25T10:04:55.968Z,97911.25
2023-04-25T10:07:27.215Z,97910.63
2023-04-25T10:10:05.174Z,97917.75
2023-04-25T10:12:33.803Z,97922.34
2023-04-25T10:15:01.840Z,97924.22
2023-04-25T10:17:29.411Z,97923.22
2023-04-25T10:19:56.669Z,97926.78
2023-04-25T10:22:36.434Z,97925.97
2023-04-25T10:25:05.408Z,97924.94
2023-04-25T10:27:32.725Z,97924.97
2023-04-25T10:30:05.642Z,97937.28
2023-04-25T10:32:36.138Z,97946.06
2023-04-25T10:35:27.682Z,97949.72
2023-04-25T10:38:03.773Z,97949.88
2023-04-25T10:40:31.145Z,97954.81
2023-04-25T10:43:32.820Z,97959.31
2023-04-25T10:46:02.790Z,97959.06
2023-04-25T10:48:31.405Z,97959.28
2023-04-25T10:51:10.983Z,97964.13
2023-04-25T10:53:38.275Z,97958.63
2023-04-25T10:56:22.399Z,97967.91
2023-04-25T10:58:52.089Z,97959.13
2023-04-25T11:01:26.425Z,97958.03
2023-04-25T11:03:59.788Z,97953.97
2023-04-25T11:07:04.480Z,97949.25
2023-04-25T11:09:37.568Z,97950.50
2023-04-25T11:12:04.579Z,97948.41
2023-04-25T11:14:31.451Z,97942.13
2023-04-25T11:17:00.707Z,97946.97
2023-04-25T11:19:28.941Z,97944.91
2023-04-25T11:22:00.121Z,97937.34
2023-04-25T11:24:29.316Z,97929.53
2023-04-25T11:26:56.454Z,97937.09
2023-04-25T11:29:24.521Z,97928.38
2023-04-25T11:31:51.902Z,97924.22
2023-04-25T11:34:21.769Z,97935.38
2023-04-25T11:36:48.540Z,97936.88
2023-04-25T11:39:16.409Z,97937.72
2023-04-25T11:41:45.903Z,97936.50
2023-04-25T11:44:13.207Z,97933.19
2023-04-25T11:46:39.922Z,97934.84
2023-04-25T11:49:06.794Z,97939.56
2023-04-25T11:51:46.777Z,97937.22
2023-04-25T11:54:14.775Z,97946.69
2023-04-25T11:56:47.520Z,97944.31
2023-04-25T11:59:15.084Z,97944.88
2023-04-25T12:01:48.805Z,97938.31
2023-04-25T12:04:19.844Z,97941.13
2023-04-25T12:06:49.236Z,97944.00
2023-04-25T12:09:22.678Z,97938.94
2023-04-25T12:11:53.803Z,97942.44
2023-04-25T12:14:32.511Z,97930.69
2023-04-25T12:17:01.832Z,97947.78
2023-04-25T12:19:35.120Z,97944.41
2023-04-25T12:22:21.241Z,97942.78
2023-04-25T12:24:47.965Z,97940.00
2023-04-25T12:27:21.067Z,97946.78
2023-04-25T12:29:57.096Z,97962.25
2023-04-25T12:32:24.174Z,97964.97
2023-04-25T12:34:51.156Z,97962.50
2023-04-25T12:37:17.864Z,97972.19
2023-04-25T12:39:44.814Z,97972.09
2023-04-25T12:42:14.459Z,97978.94
2023-04-25T12:44:41.757Z,97979.09
2023-04-25T12:47:09.135Z,97984.53
2023-04-25T12:49:36.182Z,97985.72
2023-04-25T12:52:02.937Z,97982.97
2023-04-25T12:54:29.903Z,97970.28
2023-04-25T12:56:56.545Z,97978.38
2023-04-25T12:59:23.466Z,97979.16
2023-04-25T13:01:50.878Z,97977.31
2023-04-25T13:04:17.759Z,97977.44
2023-04-25T13:06:44.761Z,97975.81
2023-04-25T13:09:13.751Z,97974.56
2023-04-25T13:11:41.992Z,97978.09
2023-04-25T13:14:09.214Z,97974.47
2023-04-25T13:16:36.101Z,97981.91
2023-04-25T13:19:02.807Z,97997.28
2023-04-25T13:21:33.163Z,97988.22
2023-04-25T13:24:00.041Z,97990.53
2023-04-25T13:26:26.954Z,97991.03
2023-04-25T13:28:53.843Z,98001.53
2023-04-25T13:31:20.714Z,97991.53
2023-04-25T13:33:47.603Z,98013.56
2023-04-25T13:36:14.465Z,97998.28
2023-04-25T13:38:43.350Z,98012.31
2023-04-25T13:41:12.316Z,98013.06
2023-04-25T13:43:39.452Z,98017.84
2023-04-25T13:46:06.487Z,98023.00
2023-04-25T13:48:33.185Z,98026.16
2023-04-25T13:50:59.864Z,98026.66
2023-04-25T13:53:26.638Z,98027.38
2023-04-25T13:55:53.374Z,98021.41
2023-04-25T13:58:21.515Z,98029.25
2023-04-25T14:00:48.280Z,98028.72
2023-04-25T14:03:15.158Z,98027.78
2023-04-25T14:05:42.206Z,98025.63
2023-04-25T14:08:11.017Z,98025.50
2023-04-25T14:10:38.413Z,98022.38
2023-04-25T14:13:05.874Z,98036.19
2023-04-25T14:15:33.571Z,98025.50
2023-04-25T14:18:01.511Z,98022.03
2023-04-25T14:20:28.584Z,98010.00
2023-04-25T14:22:57.133Z,98026.97
2023-04-25T14:25:24.510Z,98023.06
2023-04-25T14:27:52.016Z,98029.13
2023-04-25T14:30:20.240Z,98036.72
2023-04-25T14:32:47.475Z,98038.38
2023-04-25T14:35:14.546Z,98035.69
2023-04-25T14:37:41.407Z,98038.28
2023-04-25T14:40:14.331Z,98036.94
2023-04-25T14:42:41.414Z,98031.97
2023-04-25T14:45:09.766Z,98030.88
2023-04-25T14:47:38.446Z,98047.66
2023-04-25T14:50:06.291Z,98046.09
2023-04-25T14:52:33.078Z,98046.78
2023-04-25T14:55:01.489Z,98055.97
2023-04-25T14:57:28.361Z,98062.78
2023-04-25T14:59:55.479Z,98056.63
2023-04-25T15:02:22.830Z,98059.47
2023-04-25T15:04:49.738Z,98057.66
2023-04-25T15:07:18.483Z,98062.13
2023-04-25T15:09:45.638Z,98067.09
2023-04-25T15:12:12.931Z,98067.03
2023-04-25T15:14:39.726Z,98066.06
2023-04-25T15:17:06.626Z,98067.69
2023-04-25T15:19:33.506Z,98074.41
2023-04-25T15:22:04.054Z,98082.28
2023-04-25T15:24:31.123Z,98083.69
2023-04-25T15:26:57.836Z,98087.13
2023-04-25T15:29:24.450Z,98084.63
2023-04-25T15:31:51.440Z,98083.13
2023-04-25T15:34:18.226Z,98086.75
2023-04-25T15:36:45.398Z,98090.53
2023-04-25T15:39:12.326Z,98088.38
2023-04-25T15:41:39.088Z,98090.34
2023-04-25T15:44:05.857Z,98089.00
2023-04-25T15:46:32.641Z,98087.72
2023-04-25T15:48:59.627Z,98078.53
2023-04-25T15:51:26.977Z,98078.03
2023-04-25T15:53:54.153Z,98081.41
2023-04-25T15:56:21.658Z,98083.13
2023-04-25T15:58:48.797Z,98077.38
2023-04-25T16:01:15.931Z,98071.97
2023-04-25T16:03:42.953Z,98082.47
2023-04-25T16:06:09.752Z,98080.91
2023-04-25T16:08:36.592Z,98076.97
2023-04-25T16:11:03.726Z,98087.22
2023-04-25T16:13:30.510Z,98077.22
2023-04-25T16:15:57.932Z,98080.97
2023-04-25T16:18:24.894Z,98082.13
2023-04-25T16:20:51.811Z,98089.28
2023-04-25T16:23:18.874Z,98080.53
2023-04-25T16:25:46.063Z,98076.78
2023-04-25T16:28:12.878Z,98079.50
2023-04-25T16:30:39.630Z,98088.69
2023-04-25T16:33:06.323Z,98087.28
2023-04-25T16:35:33.174Z,98089.97
2023-04-25T16:38:00.521Z,98089.06
2023-04-25T16:40:27.699Z,98095.75
2023-04-25T16:42:54.418Z,98095.66
2023-04-25T16:45:21.771Z,98095.13
2023-04-25T16:47:48.504Z,98096.69
2023-04-25T16:50:15.466Z,98098.00
2023-04-25T16:52:44.159Z,98097.41
2023-04-25T16:55:11.269Z,98097.31
2023-04-25T16:57:38.213Z,98104.31
2023-04-25T17:00:06.555Z,98103.03
2023-04-25T17:02:33.458Z,98110.97
2023-04-25T17:05:00.300Z,98108.91
2023-04-25T17:07:28.013Z,98098.59
2023-04-25T17:09:54.634Z,98099.47
2023-04-25T17:12:21.958Z,98096.28
2023-04-25T17:14:50.070Z,98094.78
2023-04-25T17:17:18.918Z,98105.91
2023-04-25T17:19:46.070Z,98105.31
2023-04-25T17:22:13.044Z,98099.44
2023-04-25T17:24:40.838Z,98100.13
2023-04-25T17:27:07.717Z,98109.00
2023-04-25T17:29:35.310Z,98104.34
2023-04-25T17:32:02.253Z,98106.19
2023-04-25T17:34:29.212Z,98106.84
2023-04-25T17:36:55.833Z,98111.06
2023-04-25T17:39:22.607Z,98112.13
2023-04-25T17:41:49.425Z,98124.75
2023-04-25T17:44:16.199Z,98124.09
2023-04-25T17:46:42.911Z,98124.34
2023-04-25T17:49:09.646Z,98124.69
2023-04-25T17:51:36.352Z,98120.41
2023-04-25T17:54:03.189Z,98137.03
2023-04-25T17:56:30.768Z,98132.78
2023-04-25T17:58:57.468Z,98137.38
2023-04-25T18:01:24.136Z,98147.97
2023-04-25T18:03:51.716Z,98142.66
2023-04-25T18:06:18.904Z,98144.50
2023-04-25T18:08:46.129Z,98150.69
2023-04-25T18:11:13.246Z,98149.94
2023-04-25T18:13:40.952Z,98156.94
2023-04-25T18:16:08.068Z,98159.59
2023-04-25T18:18:36.429Z,98159.63
2023-04-25T18:21:05.646Z,98175.50
2023-04-25T18:23:34.327Z,98180.75
2023-04-25T18:26:02.706Z,98175.44
2023-04-25T18:28:29.648Z,98173.56
2023-04-25T18:30:56.937Z,98182.19
2023-04-25T18:33:23.888Z,98177.69
2023-04-25T18:35:58.203Z,98186.44
2023-04-25T18:38:35.510Z,98195.19
2023-04-25T18:41:21.085Z,98200.97
2023-04-25T18:43:54.433Z,98204.59
2023-04-25T18:46:24.507Z,98204.63
2023-04-25T18:48:55.260Z,98215.38
2023-04-25T18:51:29.452Z,98217.94
2023-04-25T18:53:57.005Z,98227.41
2023-04-25T18:56:25.657Z,98222.34
2023-04-25T18:58:54.400Z,98232.19
2023-04-25T19:01:22.581Z,98229.59
2023-04-25T19:03:57.136Z,98239.06
2023-04-25T19:06:27.497Z,98232.94
2023-04-25T19:08:55.666Z,98238.25
2023-04-25T19:11:22.804Z,98241.78
2023-04-25T19:13:50.359Z,98245.19
2023-04-25T19:16:18.047Z,98246.84
2023-04-25T19:18:46.632Z,98242.50
2023-04-25T19:21:13.265Z,98246.88
2023-04-25T19:23:40.108Z,98251.22
2023-04-25T19:26:06.909Z,98252.19
2023-04-25T19:28:33.901Z,98262.69
2023-04-25T19:31:00.947Z,98257.69
2023-04-25T19:33:27.556Z,98267.25
2023-04-25T19:35:54.557Z,98262.94
2023-04-25T19:38:21.574Z,98268.34
2023-04-25T19:40:49.232Z,98277.06
2023-04-25T19:43:15.948Z,98283.25
2023-04-25T19:45:42.799Z,98279.84
2023-04-25T19:48:10.438Z,98282.47
2023-04-25T19:50:37.384Z,98282.34
2023-04-25T19:53:04.448Z,98279.72
2023-04-25T19:55:31.299Z,98284.13
2023-04-25T19:57:58.071Z,98280.50
2023-04-25T20:00:24.706Z,98284.03
2023-04-25T20:02:51.333Z,98285.63
2023-04-25T20:05:18.610Z,98294.41
2023-04-25T20:07:45.437Z,98288.28
2023-04-25T20:10:16.603Z,98288.34
2023-04-25T20:12:44.630Z,98288.59
2023-04-25T20:15:11.975Z,98298.03
2023-04-25T20:17:40.418Z,98300.94
2023-04-25T20:20:08.178Z,98303.53
2023-04-25T20:22:38.874Z,98301.91
2023-04-25T20:25:07.353Z,98298.41
2023-04-25T20:27:33.934Z,98308.81
2023-04-25T20:30:04.777Z,98306.25
2023-04-25T20:32:34.558Z,98306.38
2023-04-25T20:35:07.089Z,98309.75
2023-04-25T20:37:33.758Z,98312.28
2023-04-25T20:40:02.147Z,98311.44
2023-04-25T20:42:28.832Z,98311.47
2023-04-25T20:44:56.042Z,98317.63
2023-04-25T20:47:22.810Z,98316.72
2023-04-25T20:49:50.044Z,98307.31
2023-04-25T20:52:17.304Z,98302.06
2023-04-25T20:54:46.223Z,98305.50
2023-04-25T20:57:13.169Z,98306.41
2023-04-25T20:59:39.776Z,98308.97
2023-04-25T21:02:06.432Z,98314.22
2023-04-25T21:04:33.337Z,98324.56
2023-04-25T21:07:00.916Z,98323.75
2023-04-25T21:09:27.549Z,98323.00
2023-04-25T21:11:54.241Z,98323.75
2023-04-25T21:14:20.847Z,98319.41
2023-04-25T21:16:47.557Z,98327.38
2023-04-25T21:19:14.158Z,98330.91
2023-04-25T21:21:40.880Z,98330.06
2023-04-25T21:24:08.140Z,98329.13
2023-04-25T21:26:34.661Z,98331.66
2023-04-25T21:29:01.267Z,98329.91
2023-04-25T21:31:28.277Z,98331.56
2023-04-25T21:33:54.896Z,98339.50
2023-04-25T21:36:22.373Z,98326.44
2023-04-25T21:38:49.789Z,98336.91
2023-04-25T21:41:16.779Z,98341.34
2023-04-25T21:43:43.685Z,98338.69
2023-04-25T21:46:23.062Z,98340.50
2023-04-25T21:48:50.980Z,98342.25
2023-04-25T21:51:18.076Z,98344.03
2023-04-25T21:53:44.699Z,98345.75
2023-04-25T21:56:12.139Z,98343.22
2023-04-25T21:58:38.715Z,98345.91
2023-04-25T22:01:05.493Z,98352.84
2023-04-25T22:03:33.211Z,98350.13
2023-04-25T22:06:00.155Z,98346.75
2023-04-25T22:08:26.849Z,98352.72
2023-04-25T22:10:55.323Z,98347.59
2023-04-25T22:13:23.036Z,98353.69
2023-04-25T22:15:49.711Z,98351.13
2023-04-25T22:18:16.499Z,98355.41
2023-04-25T22:20:44.480Z,98353.59
2023-04-25T22:23:12.262Z,98359.69
2023-04-25T22:25:39.024Z,98368.41
2023-04-25T22:28:05.837Z,98364.94
2023-04-25T22:30:32.727Z,98355.38
2023-04-25T22:32:59.558Z,98360.59
2023-04-25T22:35:26.322Z,98360.63
2023-04-25T22:37:53.316Z,98369.38
2023-04-25T22:40:20.080Z,98366.78
2023-04-25T22:42:46.825Z,98372.03
2023-04-25T22:45:13.818Z,98362.47
2023-04-25T22:47:40.652Z,98372.09
2023-04-25T22:50:12.795Z,98372.13
2023-04-25T22:52:40.608Z,98368.66
2023-04-25T22:55:07.621Z,98381.72
2023-04-25T22:57:37.612Z,98380.91
2023-04-25T23:00:10.588Z,98386.13
2023-04-25T23:02:37.345Z,98386.13
2023-04-25T23:05:06.995Z,98387.00
2023-04-25T23:07:34.164Z,98392.22
2023-04-25T23:10:00.894Z,98382.63
2023-04-25T23:12:27.476Z,98383.53
2023-04-25T23:14:54.031Z,98394.88
2023-04-25T23:17:20.732Z,98394.88
2023-04-25T23:19:48.414Z,98403.50
2023-04-25T23:22:15.496Z,98400.03
2023-04-25T23:24:42.138Z,98403.53
2023-04-25T23:27:08.768Z,98401.81
2023-04-25T23:29:36.235Z,98399.22
2023-04-25T23:32:02.864Z,98403.47
2023-04-25T23:34:33.054Z,98408.69
2023-04-25T23:37:01.733Z,98404.38
2023-04-25T23:39:28.674Z,98412.22
2023-04-25T23:41:55.278Z,98419.19
2023-04-25T23:44:22.296Z,98414.00
2023-04-25T23:46:49.421Z,98414.81
2023-04-25T23:49:16.161Z,98413.97
2023-04-25T23:51:43.201Z,98417.44
2023-04-25T23:54:09.808Z,98420.97
2023-04-25T23:56:36.389Z,98422.69
2023-04-25T23:59:04.001Z,98420.97
